This is the latest recevied weather packets stored in our database for station/object W4NFM. If no packets are shown the sender has not sent any weather packets the latest 10 day(s).
| Time | Temp. | Humidity | Pressure | Rain* | Wind** | Luminosity | Snow |
|---|---|---|---|---|---|---|---|
| 1777570024 | 17.78° C | 44% | 1011.7 hPa | 0 mm | - | 65 W/m² | - |
| 1777568944 | 17.22° C | 49% | 1011.8 hPa | 0 mm | - | 122 W/m² | - |
| 1777568044 | 17.22° C | 50% | 1011.8 hPa | 0 mm | - | 35 W/m² | - |
| 1777566424 | 16.67° C | 53% | 1011.9 hPa | 0 mm | - | 36 W/m² | - |
| 1777562824 | 15.56° C | 58% | 1012.7 hPa | 0 mm | - | 84 W/m² | - |
| 1777562284 | 15° C | 60% | 1012.8 hPa | 0 mm | - | 46 W/m² | - |
| 1777558144 | 14.44° C | 65% | 1012.7 hPa | 0 mm | - | 62 W/m² | - |
| 1777557244 | 13.89° C | 73% | 1012.6 hPa | 0 mm | - | 29 W/m² | - |
| 1777553644 | 12.78° C | 87% | 1012.6 hPa | 0 mm | - | 35 W/m² | - |
| 1777546444 | 11.11° C | 93% | 1010.9 hPa | 0 mm | - | 0 W/m² | - |
| 1777543744 | 11.67° C | 88% | 1010.6 hPa | 0 mm | - | 0 W/m² | - |
| 1777540144 | 11.67° C | 94% | 1009.6 hPa | 0 mm | - | 0 W/m² | - |
| 1777539604 | 12.22° C | 94% | 1010.1 hPa | 0 mm | - | 0 W/m² | - |
| 1777536004 | 11.67° C | 93% | 1010.4 hPa | 0 mm | - | 0 W/m² | - |
| 1777532404 | 12.22° C | 87% | 1010.6 hPa | 0 mm | - | 0 W/m² | - |
| 1777532044 | 12.22° C | 87% | 1011 hPa | 0 mm | - | 0 W/m² | - |
| 1777530445 | 12.78° C | 85% | 1010.9 hPa | 0 mm | - | 0 W/m² | - |
| 1777529344 | 13.33° C | 82% | 1011 hPa | 0 mm | - | 0 W/m² | - |
| 1777526824 | 13.33° C | 85% | 1011 hPa | 0 mm | - | 0 W/m² | - |
| 1777525744 | 13.33° C | 85% | 1011.4 hPa | 0 mm | - | 0 W/m² | - |
| 1777524304 | 13.89° C | 87% | 1011.3 hPa | 0 mm | - | 0 W/m² | - |
| 1777523764 | 13.89° C | 87% | 1011.1 hPa | 0 mm | - | 0 W/m² | - |
| 1777522684 | 14.44° C | 88% | 1011.1 hPa | 0 mm | - | 0 W/m² | - |
| 1777521244 | 14.44° C | 90% | 1011.1 hPa | 0 mm | - | 0 W/m² | - |
| 1777517644 | 15° C | 89% | 1011.3 hPa | 0 mm | - | 0 W/m² | - |
* Rain latest hour (hover to see other rain measurements)
** Current wind speed in m/s (hover to see current wind gust speed)